sensor_id;sensor_type;location;lat;lon;timestamp;temperature;humidity
23156;DHT22;11746;50.876;4.246;2024-03-17T00:00:24;10.20;99.90
23156;DHT22;11746;50.876;4.246;2024-03-17T00:02:50;10.10;99.90
23156;DHT22;11746;50.876;4.246;2024-03-17T00:05:16;10.10;99.90
23156;DHT22;11746;50.876;4.246;2024-03-17T00:07:44;10.10;99.90
23156;DHT22;11746;50.876;4.246;2024-03-17T00:10:10;10.10;99.90
23156;DHT22;11746;50.876;4.246;2024-03-17T00:12:36;10.10;99.90
23156;DHT22;11746;50.876;4.246;2024-03-17T00:15:02;10.20;99.90
23156;DHT22;11746;50.876;4.246;2024-03-17T00:17:31;10.10;99.90
23156;DHT22;11746;50.876;4.246;2024-03-17T00:20:00;10.00;99.90
23156;DHT22;11746;50.876;4.246;2024-03-17T00:22:32;10.10;99.90
23156;DHT22;11746;50.876;4.246;2024-03-17T00:25:02;10.10;99.90
23156;DHT22;11746;50.876;4.246;2024-03-17T00:27:29;10.00;99.90
23156;DHT22;11746;50.876;4.246;2024-03-17T00:29:54;10.10;99.90
23156;DHT22;11746;50.876;4.246;2024-03-17T00:32:20;10.10;99.90
23156;DHT22;11746;50.876;4.246;2024-03-17T00:34:48;10.10;99.90
23156;DHT22;11746;50.876;4.246;2024-03-17T00:37:14;10.10;99.90
23156;DHT22;11746;50.876;4.246;2024-03-17T00:39:40;10.10;99.90
23156;DHT22;11746;50.876;4.246;2024-03-17T00:42:10;10.10;99.90
23156;DHT22;11746;50.876;4.246;2024-03-17T00:44:35;10.00;99.90
23156;DHT22;11746;50.876;4.246;2024-03-17T00:47:01;10.00;99.90
23156;DHT22;11746;50.876;4.246;2024-03-17T00:49:31;9.90;99.90
23156;DHT22;11746;50.876;4.246;2024-03-17T00:51:57;9.90;99.90
23156;DHT22;11746;50.876;4.246;2024-03-17T00:54:24;9.80;99.90
23156;DHT22;11746;50.876;4.246;2024-03-17T00:56:50;9.90;99.90
23156;DHT22;11746;50.876;4.246;2024-03-17T00:59:19;9.80;99.90
23156;DHT22;11746;50.876;4.246;2024-03-17T01:01:45;9.80;99.90
23156;DHT22;11746;50.876;4.246;2024-03-17T01:04:10;9.80;99.90
23156;DHT22;11746;50.876;4.246;2024-03-17T01:06:36;9.70;99.90
23156;DHT22;11746;50.876;4.246;2024-03-17T01:09:03;9.70;99.90
23156;DHT22;11746;50.876;4.246;2024-03-17T01:11:29;9.70;99.90
23156;DHT22;11746;50.876;4.246;2024-03-17T01:13:57;9.70;99.90
23156;DHT22;11746;50.876;4.246;2024-03-17T01:16:25;9.60;99.90
23156;DHT22;11746;50.876;4.246;2024-03-17T01:18:52;9.70;99.90
23156;DHT22;11746;50.876;4.246;2024-03-17T01:21:19;9.70;99.90
23156;DHT22;11746;50.876;4.246;2024-03-17T01:23:47;9.70;99.90
23156;DHT22;11746;50.876;4.246;2024-03-17T01:26:13;9.80;99.90
23156;DHT22;11746;50.876;4.246;2024-03-17T01:28:40;9.80;99.90
23156;DHT22;11746;50.876;4.246;2024-03-17T01:31:06;9.90;99.90
23156;DHT22;11746;50.876;4.246;2024-03-17T01:33:32;9.90;99.90
23156;DHT22;11746;50.876;4.246;2024-03-17T01:36:00;9.90;99.90
23156;DHT22;11746;50.876;4.246;2024-03-17T01:38:26;9.90;99.90
23156;DHT22;11746;50.876;4.246;2024-03-17T01:40:52;10.00;99.90
23156;DHT22;11746;50.876;4.246;2024-03-17T01:43:19;10.00;99.90
23156;DHT22;11746;50.876;4.246;2024-03-17T01:45:45;10.10;99.90
23156;DHT22;11746;50.876;4.246;2024-03-17T01:48:15;10.00;99.90
23156;DHT22;11746;50.876;4.246;2024-03-17T01:50:44;10.00;99.90
23156;DHT22;11746;50.876;4.246;2024-03-17T01:53:12;10.00;99.90
23156;DHT22;11746;50.876;4.246;2024-03-17T01:55:40;10.10;99.90
23156;DHT22;11746;50.876;4.246;2024-03-17T01:58:07;10.00;99.90
23156;DHT22;11746;50.876;4.246;2024-03-17T02:00:36;10.00;99.90
23156;DHT22;11746;50.876;4.246;2024-03-17T02:03:06;10.00;99.90
23156;DHT22;11746;50.876;4.246;2024-03-17T02:05:32;10.10;99.90
23156;DHT22;11746;50.876;4.246;2024-03-17T02:08:00;10.10;99.90
23156;DHT22;11746;50.876;4.246;2024-03-17T02:10:27;10.10;99.90
23156;DHT22;11746;50.876;4.246;2024-03-17T02:12:55;10.10;99.90
23156;DHT22;11746;50.876;4.246;2024-03-17T02:15:21;10.00;99.90
23156;DHT22;11746;50.876;4.246;2024-03-17T02:17:46;10.00;99.90
23156;DHT22;11746;50.876;4.246;2024-03-17T02:20:12;10.20;99.90
23156;DHT22;11746;50.876;4.246;2024-03-17T02:22:43;10.10;99.90
23156;DHT22;11746;50.876;4.246;2024-03-17T02:25:08;10.20;99.90
23156;DHT22;11746;50.876;4.246;2024-03-17T02:27:37;10.20;99.90
23156;DHT22;11746;50.876;4.246;2024-03-17T02:30:04;10.20;99.90
23156;DHT22;11746;50.876;4.246;2024-03-17T02:32:35;10.20;99.90
23156;DHT22;11746;50.876;4.246;2024-03-17T02:35:00;10.20;99.90
23156;DHT22;11746;50.876;4.246;2024-03-17T02:37:26;10.20;99.90
23156;DHT22;11746;50.876;4.246;2024-03-17T02:39:52;10.10;99.90
23156;DHT22;11746;50.876;4.246;2024-03-17T02:42:18;10.10;99.90
23156;DHT22;11746;50.876;4.246;2024-03-17T02:44:44;10.20;99.90
23156;DHT22;11746;50.876;4.246;2024-03-17T02:47:11;10.30;99.90
23156;DHT22;11746;50.876;4.246;2024-03-17T02:49:40;10.30;99.90
23156;DHT22;11746;50.876;4.246;2024-03-17T02:52:09;10.30;99.90
23156;DHT22;11746;50.876;4.246;2024-03-17T02:54:36;10.30;99.90
23156;DHT22;11746;50.876;4.246;2024-03-17T02:57:03;10.20;99.90
23156;DHT22;11746;50.876;4.246;2024-03-17T02:59:32;10.20;99.90
23156;DHT22;11746;50.876;4.246;2024-03-17T03:01:58;10.20;99.90
23156;DHT22;11746;50.876;4.246;2024-03-17T03:04:25;10.10;99.90
23156;DHT22;11746;50.876;4.246;2024-03-17T03:06:50;10.10;99.90
23156;DHT22;11746;50.876;4.246;2024-03-17T03:09:16;10.10;99.90
23156;DHT22;11746;50.876;4.246;2024-03-17T03:11:48;10.10;99.90
23156;DHT22;11746;50.876;4.246;2024-03-17T03:14:13;10.20;99.90
23156;DHT22;11746;50.876;4.246;2024-03-17T03:16:39;10.20;99.90
23156;DHT22;11746;50.876;4.246;2024-03-17T03:19:04;10.20;99.90
23156;DHT22;11746;50.876;4.246;2024-03-17T03:21:35;10.30;99.90
23156;DHT22;11746;50.876;4.246;2024-03-17T03:24:01;10.30;99.90
23156;DHT22;11746;50.876;4.246;2024-03-17T03:26:26;10.20;99.90
23156;DHT22;11746;50.876;4.246;2024-03-17T03:28:53;10.30;99.90
23156;DHT22;11746;50.876;4.246;2024-03-17T03:31:20;10.30;99.90
23156;DHT22;11746;50.876;4.246;2024-03-17T03:33:47;10.30;99.90
23156;DHT22;11746;50.876;4.246;2024-03-17T03:36:14;10.20;99.90
23156;DHT22;11746;50.876;4.246;2024-03-17T03:38:40;10.20;99.90
23156;DHT22;11746;50.876;4.246;2024-03-17T03:41:12;10.30;99.90
23156;DHT22;11746;50.876;4.246;2024-03-17T03:43:43;10.30;99.90
23156;DHT22;11746;50.876;4.246;2024-03-17T03:46:11;10.20;99.90
23156;DHT22;11746;50.876;4.246;2024-03-17T03:48:39;10.10;99.90
23156;DHT22;11746;50.876;4.246;2024-03-17T03:51:07;10.20;99.90
23156;DHT22;11746;50.876;4.246;2024-03-17T03:53:36;10.10;99.90
23156;DHT22;11746;50.876;4.246;2024-03-17T03:56:05;10.20;99.90
23156;DHT22;11746;50.876;4.246;2024-03-17T03:58:38;10.30;99.90
23156;DHT22;11746;50.876;4.246;2024-03-17T04:01:05;10.20;99.90
23156;DHT22;11746;50.876;4.246;2024-03-17T04:03:32;10.10;99.90
23156;DHT22;11746;50.876;4.246;2024-03-17T04:06:07;10.10;99.90
23156;DHT22;11746;50.876;4.246;2024-03-17T04:08:35;10.10;99.90
23156;DHT22;11746;50.876;4.246;2024-03-17T04:11:03;10.10;99.90
23156;DHT22;11746;50.876;4.246;2024-03-17T04:13:32;10.20;99.90
23156;DHT22;11746;50.876;4.246;2024-03-17T04:16:04;10.10;99.90
23156;DHT22;11746;50.876;4.246;2024-03-17T04:18:31;10.00;99.90
23156;DHT22;11746;50.876;4.246;2024-03-17T04:21:01;10.00;99.90
23156;DHT22;11746;50.876;4.246;2024-03-17T04:23:27;9.90;99.90
23156;DHT22;11746;50.876;4.246;2024-03-17T04:25:53;10.00;99.90
23156;DHT22;11746;50.876;4.246;2024-03-17T04:28:21;9.90;99.90
23156;DHT22;11746;50.876;4.246;2024-03-17T04:30:49;9.90;99.90
23156;DHT22;11746;50.876;4.246;2024-03-17T04:33:15;9.90;99.90
23156;DHT22;11746;50.876;4.246;2024-03-17T04:35:42;9.90;99.90
23156;DHT22;11746;50.876;4.246;2024-03-17T04:38:08;9.80;99.90
23156;DHT22;11746;50.876;4.246;2024-03-17T04:40:35;9.90;99.90
23156;DHT22;11746;50.876;4.246;2024-03-17T04:43:01;9.90;99.90
23156;DHT22;11746;50.876;4.246;2024-03-17T04:45:29;9.90;99.90
23156;DHT22;11746;50.876;4.246;2024-03-17T04:47:55;9.80;99.90
23156;DHT22;11746;50.876;4.246;2024-03-17T04:50:20;9.90;99.90
23156;DHT22;11746;50.876;4.246;2024-03-17T04:52:46;9.80;99.90
23156;DHT22;11746;50.876;4.246;2024-03-17T04:55:12;9.80;99.90
23156;DHT22;11746;50.876;4.246;2024-03-17T04:57:37;9.70;99.90
23156;DHT22;11746;50.876;4.246;2024-03-17T05:00:04;9.60;99.90
23156;DHT22;11746;50.876;4.246;2024-03-17T05:02:34;9.70;99.90
23156;DHT22;11746;50.876;4.246;2024-03-17T05:05:03;9.70;99.90
23156;DHT22;11746;50.876;4.246;2024-03-17T05:07:33;9.70;99.90
23156;DHT22;11746;50.876;4.246;2024-03-17T05:10:01;9.70;99.90
23156;DHT22;11746;50.876;4.246;2024-03-17T05:12:26;9.60;99.90
23156;DHT22;11746;50.876;4.246;2024-03-17T05:14:54;9.70;99.90
23156;DHT22;11746;50.876;4.246;2024-03-17T05:17:20;9.70;99.90
23156;DHT22;11746;50.876;4.246;2024-03-17T05:19:45;9.70;99.90
23156;DHT22;11746;50.876;4.246;2024-03-17T05:22:13;9.70;99.90
23156;DHT22;11746;50.876;4.246;2024-03-17T05:24:39;9.80;99.90
23156;DHT22;11746;50.876;4.246;2024-03-17T05:27:05;9.90;99.90
23156;DHT22;11746;50.876;4.246;2024-03-17T05:29:30;9.90;99.90
23156;DHT22;11746;50.876;4.246;2024-03-17T05:31:58;10.00;99.90
23156;DHT22;11746;50.876;4.246;2024-03-17T05:34:30;10.10;99.90
23156;DHT22;11746;50.876;4.246;2024-03-17T05:36:56;10.10;99.90
23156;DHT22;11746;50.876;4.246;2024-03-17T05:39:21;10.00;99.90
23156;DHT22;11746;50.876;4.246;2024-03-17T05:41:47;10.10;99.90
23156;DHT22;11746;50.876;4.246;2024-03-17T05:44:15;10.10;99.90
23156;DHT22;11746;50.876;4.246;2024-03-17T05:46:40;10.10;99.90
23156;DHT22;11746;50.876;4.246;2024-03-17T05:49:07;10.10;99.90
23156;DHT22;11746;50.876;4.246;2024-03-17T05:51:33;10.00;99.90
23156;DHT22;11746;50.876;4.246;2024-03-17T05:53:58;10.00;99.90
23156;DHT22;11746;50.876;4.246;2024-03-17T05:56:24;9.80;99.90
23156;DHT22;11746;50.876;4.246;2024-03-17T05:58:50;9.90;99.90
23156;DHT22;11746;50.876;4.246;2024-03-17T06:01:15;9.90;99.90
23156;DHT22;11746;50.876;4.246;2024-03-17T06:03:41;9.90;99.90
23156;DHT22;11746;50.876;4.246;2024-03-17T06:06:07;9.90;99.90
23156;DHT22;11746;50.876;4.246;2024-03-17T06:08:35;9.80;99.90
23156;DHT22;11746;50.876;4.246;2024-03-17T06:11:00;9.80;99.90
23156;DHT22;11746;50.876;4.246;2024-03-17T06:13:30;10.00;99.90
23156;DHT22;11746;50.876;4.246;2024-03-17T06:15:55;10.00;99.90
23156;DHT22;11746;50.876;4.246;2024-03-17T06:18:27;10.00;99.90
23156;DHT22;11746;50.876;4.246;2024-03-17T06:20:55;10.10;99.90
23156;DHT22;11746;50.876;4.246;2024-03-17T06:23:24;10.20;99.90
23156;DHT22;11746;50.876;4.246;2024-03-17T06:25:52;10.10;99.90
23156;DHT22;11746;50.876;4.246;2024-03-17T06:28:19;10.10;99.90
23156;DHT22;11746;50.876;4.246;2024-03-17T06:30:46;10.10;99.90
23156;DHT22;11746;50.876;4.246;2024-03-17T06:33:19;10.10;99.90
23156;DHT22;11746;50.876;4.246;2024-03-17T06:35:47;10.20;99.90
23156;DHT22;11746;50.876;4.246;2024-03-17T06:38:15;10.30;99.90
23156;DHT22;11746;50.876;4.246;2024-03-17T06:40:41;10.50;99.90
23156;DHT22;11746;50.876;4.246;2024-03-17T06:43:07;10.50;99.90
23156;DHT22;11746;50.876;4.246;2024-03-17T06:45:33;10.40;99.90
23156;DHT22;11746;50.876;4.246;2024-03-17T06:47:59;10.40;99.90
23156;DHT22;11746;50.876;4.246;2024-03-17T06:50:25;10.40;99.90
23156;DHT22;11746;50.876;4.246;2024-03-17T06:52:50;10.40;99.90
23156;DHT22;11746;50.876;4.246;2024-03-17T06:55:20;10.40;99.90
23156;DHT22;11746;50.876;4.246;2024-03-17T06:57:52;10.40;99.90
23156;DHT22;11746;50.876;4.246;2024-03-17T07:00:18;10.40;99.90
23156;DHT22;11746;50.876;4.246;2024-03-17T07:02:50;10.40;99.90
23156;DHT22;11746;50.876;4.246;2024-03-17T07:05:16;10.50;99.90
23156;DHT22;11746;50.876;4.246;2024-03-17T07:07:43;10.50;99.90
23156;DHT22;11746;50.876;4.246;2024-03-17T07:10:09;10.50;99.90
23156;DHT22;11746;50.876;4.246;2024-03-17T07:12:39;10.60;99.90
23156;DHT22;11746;50.876;4.246;2024-03-17T07:15:05;10.70;99.90
23156;DHT22;11746;50.876;4.246;2024-03-17T07:17:31;10.80;99.90
23156;DHT22;11746;50.876;4.246;2024-03-17T07:19:57;10.90;99.90
23156;DHT22;11746;50.876;4.246;2024-03-17T07:22:23;10.90;99.90
23156;DHT22;11746;50.876;4.246;2024-03-17T07:24:56;10.80;99.90
23156;DHT22;11746;50.876;4.246;2024-03-17T07:27:29;10.80;99.90
23156;DHT22;11746;50.876;4.246;2024-03-17T07:29:54;10.80;99.90
23156;DHT22;11746;50.876;4.246;2024-03-17T07:32:22;10.80;99.90
23156;DHT22;11746;50.876;4.246;2024-03-17T07:34:51;10.90;99.90
23156;DHT22;11746;50.876;4.246;2024-03-17T07:37:17;10.90;99.90
23156;DHT22;11746;50.876;4.246;2024-03-17T07:39:42;11.10;99.90
23156;DHT22;11746;50.876;4.246;2024-03-17T07:42:08;11.20;99.90
23156;DHT22;11746;50.876;4.246;2024-03-17T07:44:34;11.10;99.90
23156;DHT22;11746;50.876;4.246;2024-03-17T07:47:04;11.20;99.90
23156;DHT22;11746;50.876;4.246;2024-03-17T07:49:30;11.30;99.90
23156;DHT22;11746;50.876;4.246;2024-03-17T07:51:56;11.50;99.90
23156;DHT22;11746;50.876;4.246;2024-03-17T07:54:25;11.50;99.90
23156;DHT22;11746;50.876;4.246;2024-03-17T07:56:51;11.60;99.90
23156;DHT22;11746;50.876;4.246;2024-03-17T07:59:17;11.60;99.90
23156;DHT22;11746;50.876;4.246;2024-03-17T08:01:50;11.60;99.90
23156;DHT22;11746;50.876;4.246;2024-03-17T08:04:19;11.50;99.90
23156;DHT22;11746;50.876;4.246;2024-03-17T08:06:44;11.60;99.90
23156;DHT22;11746;50.876;4.246;2024-03-17T08:09:10;11.60;99.90
23156;DHT22;11746;50.876;4.246;2024-03-17T08:11:38;11.70;99.90
23156;DHT22;11746;50.876;4.246;2024-03-17T08:14:04;11.80;99.90
23156;DHT22;11746;50.876;4.246;2024-03-17T08:16:33;11.70;99.90
23156;DHT22;11746;50.876;4.246;2024-03-17T08:18:59;11.70;99.90
23156;DHT22;11746;50.876;4.246;2024-03-17T08:21:29;11.70;99.90
23156;DHT22;11746;50.876;4.246;2024-03-17T08:23:55;11.70;99.90
23156;DHT22;11746;50.876;4.246;2024-03-17T08:26:21;11.90;99.90
23156;DHT22;11746;50.876;4.246;2024-03-17T08:28:49;11.90;99.90
23156;DHT22;11746;50.876;4.246;2024-03-17T08:31:14;11.90;99.90
23156;DHT22;11746;50.876;4.246;2024-03-17T08:33:45;12.00;99.90
23156;DHT22;11746;50.876;4.246;2024-03-17T08:36:12;11.90;99.90
23156;DHT22;11746;50.876;4.246;2024-03-17T08:38:44;11.80;99.90
23156;DHT22;11746;50.876;4.246;2024-03-17T08:41:10;11.60;99.90
23156;DHT22;11746;50.876;4.246;2024-03-17T08:43:37;11.60;99.90
23156;DHT22;11746;50.876;4.246;2024-03-17T08:46:10;11.70;99.90
23156;DHT22;11746;50.876;4.246;2024-03-17T08:48:38;11.80;99.90
23156;DHT22;11746;50.876;4.246;2024-03-17T08:51:08;11.70;99.90
23156;DHT22;11746;50.876;4.246;2024-03-17T08:53:34;11.60;99.90
23156;DHT22;11746;50.876;4.246;2024-03-17T08:56:08;11.50;99.90
23156;DHT22;11746;50.876;4.246;2024-03-17T08:58:33;11.60;99.90
23156;DHT22;11746;50.876;4.246;2024-03-17T09:01:03;11.40;99.90
23156;DHT22;11746;50.876;4.246;2024-03-17T09:03:30;11.30;99.90
23156;DHT22;11746;50.876;4.246;2024-03-17T09:05:56;11.20;99.90
23156;DHT22;11746;50.876;4.246;2024-03-17T09:08:25;11.20;99.90
23156;DHT22;11746;50.876;4.246;2024-03-17T09:10:52;11.20;99.90
23156;DHT22;11746;50.876;4.246;2024-03-17T09:13:23;11.20;99.90
23156;DHT22;11746;50.876;4.246;2024-03-17T09:15:56;11.20;99.90
23156;DHT22;11746;50.876;4.246;2024-03-17T09:18:22;11.20;99.90
23156;DHT22;11746;50.876;4.246;2024-03-17T09:21:07;11.20;99.90
23156;DHT22;11746;50.876;4.246;2024-03-17T09:23:33;11.30;99.90
23156;DHT22;11746;50.876;4.246;2024-03-17T09:26:00;11.40;99.90
23156;DHT22;11746;50.876;4.246;2024-03-17T09:28:29;11.40;99.90
23156;DHT22;11746;50.876;4.246;2024-03-17T09:30:55;11.60;99.90
23156;DHT22;11746;50.876;4.246;2024-03-17T09:33:28;11.60;99.90
23156;DHT22;11746;50.876;4.246;2024-03-17T09:38:28;11.70;99.90
23156;DHT22;11746;50.876;4.246;2024-03-17T09:40:54;11.80;99.90
23156;DHT22;11746;50.876;4.246;2024-03-17T09:43:24;11.90;99.90
23156;DHT22;11746;50.876;4.246;2024-03-17T09:45:50;12.00;99.90
23156;DHT22;11746;50.876;4.246;2024-03-17T09:48:26;11.90;99.90
23156;DHT22;11746;50.876;4.246;2024-03-17T09:51:00;11.90;99.90
23156;DHT22;11746;50.876;4.246;2024-03-17T09:53:32;11.90;99.90
23156;DHT22;11746;50.876;4.246;2024-03-17T09:56:11;11.90;99.90
23156;DHT22;11746;50.876;4.246;2024-03-17T09:58:38;12.00;99.90
23156;DHT22;11746;50.876;4.246;2024-03-17T10:01:03;12.10;99.90
23156;DHT22;11746;50.876;4.246;2024-03-17T10:06:19;12.20;99.90
23156;DHT22;11746;50.876;4.246;2024-03-17T10:08:53;12.20;99.90
23156;DHT22;11746;50.876;4.246;2024-03-17T10:11:20;12.30;99.90
23156;DHT22;11746;50.876;4.246;2024-03-17T10:13:59;12.30;99.90
23156;DHT22;11746;50.876;4.246;2024-03-17T10:16:26;12.60;99.90
23156;DHT22;11746;50.876;4.246;2024-03-17T10:19:09;12.60;99.90
23156;DHT22;11746;50.876;4.246;2024-03-17T10:21:39;12.80;99.90
23156;DHT22;11746;50.876;4.246;2024-03-17T10:24:12;12.80;99.90
23156;DHT22;11746;50.876;4.246;2024-03-17T10:26:46;12.70;99.90
23156;DHT22;11746;50.876;4.246;2024-03-17T10:31:58;12.70;99.90
23156;DHT22;11746;50.876;4.246;2024-03-17T10:34:26;12.90;99.90
23156;DHT22;11746;50.876;4.246;2024-03-17T10:39:50;13.00;99.90
23156;DHT22;11746;50.876;4.246;2024-03-17T10:42:24;13.10;99.90
23156;DHT22;11746;50.876;4.246;2024-03-17T10:44:50;13.20;99.90
23156;DHT22;11746;50.876;4.246;2024-03-17T10:47:21;13.20;99.90
23156;DHT22;11746;50.876;4.246;2024-03-17T10:49:53;13.20;99.90
23156;DHT22;11746;50.876;4.246;2024-03-17T10:52:19;13.30;99.90
23156;DHT22;11746;50.876;4.246;2024-03-17T10:54:54;13.30;99.90
23156;DHT22;11746;50.876;4.246;2024-03-17T10:57:36;13.20;99.90
23156;DHT22;11746;50.876;4.246;2024-03-17T11:00:08;13.40;99.90
23156;DHT22;11746;50.876;4.246;2024-03-17T11:02:40;13.40;99.90
23156;DHT22;11746;50.876;4.246;2024-03-17T11:05:14;13.60;99.90
23156;DHT22;11746;50.876;4.246;2024-03-17T11:07:44;13.60;99.90
23156;DHT22;11746;50.876;4.246;2024-03-17T11:12:59;13.70;99.90
23156;DHT22;11746;50.876;4.246;2024-03-17T11:20:43;14.20;99.90
23156;DHT22;11746;50.876;4.246;2024-03-17T11:23:31;14.30;99.90
23156;DHT22;11746;50.876;4.246;2024-03-17T11:26:01;14.50;99.90
23156;DHT22;11746;50.876;4.246;2024-03-17T11:31:41;14.70;99.90
23156;DHT22;11746;50.876;4.246;2024-03-17T11:34:29;14.60;99.90
23156;DHT22;11746;50.876;4.246;2024-03-17T11:36:59;14.40;99.90
23156;DHT22;11746;50.876;4.246;2024-03-17T11:39:47;14.60;99.90
23156;DHT22;11746;50.876;4.246;2024-03-17T11:42:15;14.80;99.90
23156;DHT22;11746;50.876;4.246;2024-03-17T11:45:06;15.00;99.90
23156;DHT22;11746;50.876;4.246;2024-03-17T11:47:41;15.30;99.90
23156;DHT22;11746;50.876;4.246;2024-03-17T11:50:10;15.40;99.90
23156;DHT22;11746;50.876;4.246;2024-03-17T11:52:38;15.70;99.90
23156;DHT22;11746;50.876;4.246;2024-03-17T11:55:15;16.00;99.90
23156;DHT22;11746;50.876;4.246;2024-03-17T11:57:42;16.40;99.90
23156;DHT22;11746;50.876;4.246;2024-03-17T12:00:21;16.30;99.90
23156;DHT22;11746;50.876;4.246;2024-03-17T12:02:49;16.10;99.90
23156;DHT22;11746;50.876;4.246;2024-03-17T12:05:15;16.20;99.90
23156;DHT22;11746;50.876;4.246;2024-03-17T12:07:43;16.30;99.90
23156;DHT22;11746;50.876;4.246;2024-03-17T12:10:14;16.30;99.90
23156;DHT22;11746;50.876;4.246;2024-03-17T12:12:40;16.30;99.90
23156;DHT22;11746;50.876;4.246;2024-03-17T12:15:19;16.10;99.90
23156;DHT22;11746;50.876;4.246;2024-03-17T12:17:45;16.20;99.90
23156;DHT22;11746;50.876;4.246;2024-03-17T12:20:19;16.20;99.90
23156;DHT22;11746;50.876;4.246;2024-03-17T12:22:45;16.20;99.90
23156;DHT22;11746;50.876;4.246;2024-03-17T12:25:17;16.10;99.90
23156;DHT22;11746;50.876;4.246;2024-03-17T12:27:44;15.80;99.90
23156;DHT22;11746;50.876;4.246;2024-03-17T12:30:11;15.70;99.90
23156;DHT22;11746;50.876;4.246;2024-03-17T12:32:38;15.60;99.90
23156;DHT22;11746;50.876;4.246;2024-03-17T12:35:12;15.50;99.90
23156;DHT22;11746;50.876;4.246;2024-03-17T12:37:39;15.60;99.90
23156;DHT22;11746;50.876;4.246;2024-03-17T12:40:18;15.70;99.90
23156;DHT22;11746;50.876;4.246;2024-03-17T12:42:48;15.70;99.90
23156;DHT22;11746;50.876;4.246;2024-03-17T12:45:19;15.60;99.90
23156;DHT22;11746;50.876;4.246;2024-03-17T12:47:48;15.80;99.90
23156;DHT22;11746;50.876;4.246;2024-03-17T12:50:17;15.80;99.90
23156;DHT22;11746;50.876;4.246;2024-03-17T12:52:53;15.80;99.90
23156;DHT22;11746;50.876;4.246;2024-03-17T12:55:23;15.90;99.90
23156;DHT22;11746;50.876;4.246;2024-03-17T12:58:11;16.10;99.90
23156;DHT22;11746;50.876;4.246;2024-03-17T13:01:03;16.20;99.90
23156;DHT22;11746;50.876;4.246;2024-03-17T13:03:35;16.00;99.90
23156;DHT22;11746;50.876;4.246;2024-03-17T13:06:03;16.10;99.90
23156;DHT22;11746;50.876;4.246;2024-03-17T13:08:29;16.00;99.90
23156;DHT22;11746;50.876;4.246;2024-03-17T13:10:57;16.00;99.90
23156;DHT22;11746;50.876;4.246;2024-03-17T13:13:27;16.00;99.90
23156;DHT22;11746;50.876;4.246;2024-03-17T13:15:55;15.80;99.90
23156;DHT22;11746;50.876;4.246;2024-03-17T13:18:21;15.70;99.90
23156;DHT22;11746;50.876;4.246;2024-03-17T13:20:49;15.80;99.90
23156;DHT22;11746;50.876;4.246;2024-03-17T13:23:15;15.80;99.90
23156;DHT22;11746;50.876;4.246;2024-03-17T13:25:44;15.80;99.90
23156;DHT22;11746;50.876;4.246;2024-03-17T13:28:10;15.70;99.90
23156;DHT22;11746;50.876;4.246;2024-03-17T13:30:36;15.70;99.90
23156;DHT22;11746;50.876;4.246;2024-03-17T13:33:05;15.70;99.90
23156;DHT22;11746;50.876;4.246;2024-03-17T13:35:35;15.70;99.90
23156;DHT22;11746;50.876;4.246;2024-03-17T13:38:09;15.80;99.90
23156;DHT22;11746;50.876;4.246;2024-03-17T13:40:36;15.90;99.90
23156;DHT22;11746;50.876;4.246;2024-03-17T13:43:05;15.60;99.90
23156;DHT22;11746;50.876;4.246;2024-03-17T13:45:42;15.20;99.90
23156;DHT22;11746;50.876;4.246;2024-03-17T13:48:13;15.30;99.90
23156;DHT22;11746;50.876;4.246;2024-03-17T13:50:39;15.30;99.90
23156;DHT22;11746;50.876;4.246;2024-03-17T13:53:07;15.30;99.90
23156;DHT22;11746;50.876;4.246;2024-03-17T13:55:35;15.40;99.90
23156;DHT22;11746;50.876;4.246;2024-03-17T13:58:01;15.40;99.90
23156;DHT22;11746;50.876;4.246;2024-03-17T14:00:28;15.30;99.90
23156;DHT22;11746;50.876;4.246;2024-03-17T14:02:55;15.20;99.90
23156;DHT22;11746;50.876;4.246;2024-03-17T14:05:27;15.20;99.90
23156;DHT22;11746;50.876;4.246;2024-03-17T14:07:53;15.30;99.90
23156;DHT22;11746;50.876;4.246;2024-03-17T14:10:23;15.20;99.90
23156;DHT22;11746;50.876;4.246;2024-03-17T14:12:51;14.90;99.90
23156;DHT22;11746;50.876;4.246;2024-03-17T14:15:19;15.00;99.90
23156;DHT22;11746;50.876;4.246;2024-03-17T14:17:46;15.00;99.90
23156;DHT22;11746;50.876;4.246;2024-03-17T14:20:13;14.90;99.90
23156;DHT22;11746;50.876;4.246;2024-03-17T14:22:42;14.80;99.90
23156;DHT22;11746;50.876;4.246;2024-03-17T14:25:10;14.90;99.90
23156;DHT22;11746;50.876;4.246;2024-03-17T14:27:40;15.00;99.90
23156;DHT22;11746;50.876;4.246;2024-03-17T14:30:06;15.20;99.90
23156;DHT22;11746;50.876;4.246;2024-03-17T14:32:35;15.20;99.90
23156;DHT22;11746;50.876;4.246;2024-03-17T14:35:01;15.20;99.90
23156;DHT22;11746;50.876;4.246;2024-03-17T14:37:27;15.20;99.90
23156;DHT22;11746;50.876;4.246;2024-03-17T14:39:53;15.20;99.90
23156;DHT22;11746;50.876;4.246;2024-03-17T14:42:19;15.30;99.90
23156;DHT22;11746;50.876;4.246;2024-03-17T14:44:48;15.40;99.90
23156;DHT22;11746;50.876;4.246;2024-03-17T14:47:16;15.40;99.90
23156;DHT22;11746;50.876;4.246;2024-03-17T14:49:42;15.30;99.90
23156;DHT22;11746;50.876;4.246;2024-03-17T14:52:08;15.20;99.90
23156;DHT22;11746;50.876;4.246;2024-03-17T14:54:37;15.20;99.90
23156;DHT22;11746;50.876;4.246;2024-03-17T14:57:05;15.20;99.90
23156;DHT22;11746;50.876;4.246;2024-03-17T14:59:32;15.20;99.90
23156;DHT22;11746;50.876;4.246;2024-03-17T15:01:59;15.30;99.90
23156;DHT22;11746;50.876;4.246;2024-03-17T15:04:25;15.20;99.90
23156;DHT22;11746;50.876;4.246;2024-03-17T15:06:52;15.20;99.90
23156;DHT22;11746;50.876;4.246;2024-03-17T15:14:30;15.20;99.90
23156;DHT22;11746;50.876;4.246;2024-03-17T15:16:57;15.20;99.90
23156;DHT22;11746;50.876;4.246;2024-03-17T15:19:25;15.10;99.90
23156;DHT22;11746;50.876;4.246;2024-03-17T15:21:55;14.90;99.90
23156;DHT22;11746;50.876;4.246;2024-03-17T15:24:21;14.80;99.90
23156;DHT22;11746;50.876;4.246;2024-03-17T15:26:51;14.90;99.90
23156;DHT22;11746;50.876;4.246;2024-03-17T15:29:16;14.70;99.90
23156;DHT22;11746;50.876;4.246;2024-03-17T15:31:44;14.70;99.90
23156;DHT22;11746;50.876;4.246;2024-03-17T15:34:14;14.70;99.90
23156;DHT22;11746;50.876;4.246;2024-03-17T15:36:39;14.60;99.90
23156;DHT22;11746;50.876;4.246;2024-03-17T15:39:05;14.50;99.90
23156;DHT22;11746;50.876;4.246;2024-03-17T15:41:35;14.60;99.90
23156;DHT22;11746;50.876;4.246;2024-03-17T15:44:00;14.60;99.90
23156;DHT22;11746;50.876;4.246;2024-03-17T15:46:27;14.60;99.90
23156;DHT22;11746;50.876;4.246;2024-03-17T15:48:54;14.60;99.90
23156;DHT22;11746;50.876;4.246;2024-03-17T15:51:20;14.50;99.90
23156;DHT22;11746;50.876;4.246;2024-03-17T15:53:46;14.50;99.90
23156;DHT22;11746;50.876;4.246;2024-03-17T15:56:13;14.30;99.90
23156;DHT22;11746;50.876;4.246;2024-03-17T15:58:41;14.20;99.90
23156;DHT22;11746;50.876;4.246;2024-03-17T16:01:08;14.20;99.90
23156;DHT22;11746;50.876;4.246;2024-03-17T16:03:36;14.30;99.90
23156;DHT22;11746;50.876;4.246;2024-03-17T16:06:13;14.30;99.90